Flood From: 18-02-2018 16:00 Until: 19-02-2018 16:00 warning for: Flood Level: Yellow info button

Although rather usual in this region, locally or potentially dangerous phenomena are expected. (such as local winds, summer thunderstorms, rising streams or high waves) Be aware and pay attention to the latest weather updates, especially if you carry out activities exposed to weather or close to a stream or shoreline. 


Meteo18 Weather Cam more information Meteo18 Weather Cam


Thunder radar more information blitzortung!


Rain radar more information rain snow radar


Visit our other weather sites:

Template documentation
and downloads

And another site



Weather Underground History page Text

Daily Summary for January 24, 2018 Units:  English    Metric   Both
« Previous Day
Next Day »
Daily Weekly Monthly Yearly Custom
  High: Low: Average:
Temperature: TemperatureC °F 8.0 °F 10 °F
Dew Point: DewpointC °F 7.2 °F 8.2 °F
Humidity: Humidity % 78 % 88 %
Wind Speed: WindSpeedKMH mph 1.4 mph 9.1 mph
Wind Gust: WindSpeedGustKMH mph - -
Wind:- - SSW
Pressure: PressurehPa in 1018.5 in -
Precipitation: 0.0 in    
Historical Graphs
 
 
Tabular Data for January 24, 2018
Time Temperature Dew Point Pressure Wind Wind Speed Wind Gust Humidity Rainfall Rate (Hourly)
TemperatureC °F DewpointC °F PressurehPa in Calm     Humidity % HourlyPrecipMM in
00:01 9.7 °F 8.9 °F 1027.0 in WSW 13.0 mph 20.9 mph 95 % 0.0 in
00:07 9.7 °F 8.9 °F 1027.0 in SW 9.7 mph 16.1 mph 95 % 0.0 in
00:19 9.7 °F 8.9 °F 1027.3 in SSW 7.9 mph 12.9 mph 95 % 0.0 in
00:31 9.7 °F 8.9 °F 1027.0 in SW 13.0 mph 17.7 mph 95 % 0.0 in
00:37 9.7 °F 8.9 °F 1027.0 in SW 11.1 mph 17.7 mph 95 % 0.0 in
00:43 9.7 °F 8.9 °F 1027.0 in SSW 7.9 mph 11.3 mph 95 % 0.0 in
00:49 9.7 °F 8.9 °F 1027.0 in SW 6.4 mph 11.3 mph 95 % 0.0 in
01:01 9.6 °F 8.8 °F 1027.0 in SSW 6.4 mph 12.9 mph 95 % 0.0 in
01:07 9.6 °F 8.8 °F 1026.6 in South 7.9 mph 11.3 mph 95 % 0.0 in
01:13 9.6 °F 8.8 °F 1026.6 in SSW 7.9 mph 11.3 mph 95 % 0.0 in
01:19 9.5 °F 8.7 °F 1026.6 in South 9.7 mph 11.3 mph 95 % 0.0 in
01:25 9.5 °F 8.7 °F 1026.6 in SSW 4.7 mph 11.3 mph 95 % 0.0 in
01:31 9.5 °F 8.7 °F 1026.6 in SSW 6.4 mph 11.3 mph 95 % 0.0 in
01:37 9.4 °F 8.6 °F 1026.6 in SSW 7.9 mph 11.3 mph 95 % 0.0 in
01:43 9.4 °F 8.6 °F 1026.6 in SSW 6.4 mph 11.3 mph 95 % 0.0 in
01:49 9.4 °F 8.6 °F 1026.3 in SSW 4.7 mph 11.3 mph 95 % 0.0 in
01:55 9.4 °F 8.6 °F 1026.3 in South 1.4 mph 9.7 mph 95 % 0.0 in
02:01 9.3 °F 8.5 °F 1026.3 in SSW 7.9 mph 8.0 mph 95 % 0.0 in
02:07 9.3 °F 8.5 °F 1026.3 in SSW 3.2 mph 6.4 mph 95 % 0.0 in
02:19 9.3 °F 8.5 °F 1026.6 in SSW 4.7 mph 8.0 mph 95 % 0.0 in
02:25 9.3 °F 8.5 °F 1026.3 in SSW 4.7 mph 6.4 mph 95 % 0.0 in
02:31 9.3 °F 8.5 °F 1026.6 in SSW 1.4 mph 4.8 mph 95 % 0.0 in
02:37 9.3 °F 8.5 °F 1026.3 in South 3.2 mph 4.8 mph 95 % 0.0 in
02:44 9.2 °F 8.4 °F 1026.3 in South 4.7 mph 6.4 mph 95 % 0.0 in
02:50 9.2 °F 8.4 °F 1026.3 in SSW 4.7 mph 6.4 mph 95 % 0.0 in
02:56 9.2 °F 8.4 °F 1026.3 in SSW 4.7 mph 9.7 mph 95 % 0.0 in
03:02 9.3 °F 8.5 °F 1026.3 in SSW 6.4 mph 8.0 mph 95 % 0.0 in
03:08 9.3 °F 8.5 °F 1026.3 in SSW 4.7 mph 8.0 mph 95 % 0.0 in
03:14 9.3 °F 8.5 °F 1026.3 in SSW 7.9 mph 8.0 mph 95 % 0.0 in
03:20 9.3 °F 8.5 °F 1026.3 in South 6.4 mph 8.0 mph 95 % 0.0 in
03:26 9.3 °F 8.5 °F 1026.3 in SE 3.2 mph 6.4 mph 95 % 0.0 in
03:44 9.3 °F 8.5 °F 1026.0 in South 4.7 mph 9.7 mph 95 % 0.0 in
03:50 9.2 °F 8.4 °F 1026.0 in South 4.7 mph 8.0 mph 95 % 0.0 in
03:56 9.2 °F 8.4 °F 1026.0 in SSW 3.2 mph 8.0 mph 95 % 0.0 in
04:08 9.2 °F 8.3 °F 1026.0 in SSW 7.9 mph 12.9 mph 94 % 0.0 in
04:20 9.2 °F 8.3 °F 1026.0 in SSW 7.9 mph 9.7 mph 94 % 0.0 in
04:26 9.2 °F 8.3 °F 1025.6 in South 7.9 mph 9.7 mph 94 % 0.0 in
04:32 9.1 °F 8.2 °F 1025.6 in SSW 4.7 mph 11.3 mph 94 % 0.0 in
04:38 9.1 °F 8.2 °F 1025.6 in SSW 4.7 mph 11.3 mph 94 % 0.0 in
04:44 9.1 °F 8.2 °F 1025.6 in SSW 9.7 mph 9.7 mph 94 % 0.0 in
04:56 9.0 °F 8.1 °F 1025.6 in SSW 7.9 mph 11.3 mph 94 % 0.0 in
05:02 9.0 °F 8.1 °F 1025.6 in SSW 11.1 mph 12.9 mph 94 % 0.0 in
05:08 9.0 °F 8.1 °F 1025.6 in SSW 9.7 mph 14.5 mph 94 % 0.0 in
05:14 9.0 °F 8.1 °F 1025.6 in SSW 7.9 mph 11.3 mph 94 % 0.0 in
05:26 8.9 °F 8.0 °F 1025.6 in SSW 7.9 mph 9.7 mph 94 % 0.0 in
05:32 8.8 °F 7.9 °F 1025.6 in SW 7.9 mph 9.7 mph 94 % 0.0 in
05:38 8.7 °F 7.8 °F 1025.3 in SW 4.7 mph 9.7 mph 94 % 0.0 in
05:44 8.6 °F 7.7 °F 1025.6 in SSW 7.9 mph 9.7 mph 94 % 0.0 in
05:50 8.4 °F 7.5 °F 1025.3 in SSW 6.4 mph 8.0 mph 94 % 0.0 in
05:56 8.3 °F 7.5 °F 1025.3 in SSW 6.4 mph 9.7 mph 95 % 0.0 in
06:08 8.0 °F 7.2 °F 1024.9 in SSW 3.2 mph 6.4 mph 95 % 0.0 in
06:32 8.2 °F 7.6 °F 1024.9 in SSW 6.4 mph 8.0 mph 96 % 0.0 in
06:38 8.3 °F 7.5 °F 1024.9 in South 7.9 mph 9.7 mph 95 % 0.0 in
06:44 8.4 °F 7.6 °F 1024.9 in SSW 7.9 mph 11.3 mph 95 % 0.0 in
06:50 8.4 °F 7.6 °F 1024.9 in SW 6.4 mph 8.0 mph 95 % 0.0 in
07:02 8.4 °F 7.6 °F 1024.9 in SSW 4.7 mph 9.7 mph 95 % 0.0 in
07:08 8.4 °F 7.6 °F 1024.9 in SSW 7.9 mph 8.0 mph 95 % 0.0 in
07:14 8.6 °F 7.8 °F 1024.9 in SSW 4.7 mph 6.4 mph 95 % 0.0 in
07:20 8.6 °F 7.8 °F 1024.9 in SSW 4.7 mph 8.0 mph 95 % 0.0 in
07:26 8.6 °F 7.8 °F 1024.9 in SSW 7.9 mph 9.7 mph 95 % 0.0 in
07:38 8.6 °F 7.7 °F 1024.6 in SSW 6.4 mph 11.3 mph 94 % 0.0 in
07:44 8.6 °F 7.7 °F 1024.6 in SSW 6.4 mph 8.0 mph 94 % 0.0 in
08:02 8.6 °F 7.8 °F 1024.6 in SSW 3.2 mph 4.8 mph 95 % 0.0 in
08:32 8.6 °F 7.7 °F 1024.3 in South 6.4 mph 9.7 mph 94 % 0.0 in
08:38 8.6 °F 7.7 °F 1024.3 in SW 6.4 mph 9.7 mph 94 % 0.0 in
08:44 8.7 °F 7.8 °F 1024.3 in SW 6.4 mph 6.4 mph 94 % 0.0 in
08:50 8.6 °F 7.7 °F 1024.3 in South 4.7 mph 9.7 mph 94 % 0.0 in
08:56 8.7 °F 7.8 °F 1024.3 in SSW 6.4 mph 14.5 mph 94 % 0.0 in
09:02 8.7 °F 7.6 °F 1024.3 in SSW 7.9 mph 11.3 mph 93 % 0.0 in
09:08 8.8 °F 7.7 °F 1023.9 in SSW 9.7 mph 11.3 mph 93 % 0.0 in
09:26 8.9 °F 7.7 °F 1023.9 in SW 13.0 mph 13.0 mph 92 % 0.0 in
09:32 8.8 °F 7.4 °F 1023.9 in SW 13.0 mph 13.0 mph 91 % 0.0 in
09:38 8.8 °F 7.4 °F 1023.9 in South 13.0 mph 14.5 mph 91 % 0.0 in
09:44 8.7 °F 7.3 °F 1023.9 in SW 9.7 mph 14.5 mph 91 % 0.0 in
09:50 8.8 °F 7.4 °F 1023.9 in SSW 13.0 mph 14.5 mph 91 % 0.0 in
09:56 8.8 °F 7.4 °F 1023.9 in SW 13.0 mph 13.0 mph 91 % 0.0 in
10:02 8.9 °F 7.5 °F 1023.9 in SW 4.7 mph 8.0 mph 91 % 0.0 in
10:08 8.9 °F 7.5 °F 1023.9 in South 6.4 mph 9.7 mph 91 % 0.0 in
10:14 9.0 °F 7.6 °F 1023.6 in South 6.4 mph 11.3 mph 91 % 0.0 in
10:21 9.2 °F 7.8 °F 1023.9 in SSW 6.4 mph 11.3 mph 91 % 0.0 in
10:26 9.2 °F 7.6 °F 1023.9 in SSW 9.7 mph 12.9 mph 90 % 0.0 in
10:32 9.3 °F 7.9 °F 1023.9 in South 9.7 mph 11.3 mph 91 % 0.0 in
10:38 9.4 °F 8.0 °F 1023.6 in SW 7.9 mph 11.3 mph 91 % 0.0 in
10:44 9.5 °F 7.9 °F 1023.6 in SSW 11.1 mph 12.9 mph 90 % 0.0 in
10:51 9.6 °F 8.0 °F 1023.9 in SSW 9.7 mph 12.9 mph 90 % 0.0 in
10:56 9.6 °F 8.0 °F 1023.6 in SSE 6.4 mph 12.9 mph 90 % 0.0 in
11:02 9.8 °F 8.2 °F 1023.6 in South 9.7 mph 12.9 mph 90 % 0.0 in
11:09 9.9 °F 8.2 °F 1023.6 in SW 11.1 mph 16.1 mph 89 % 0.0 in
11:15 9.9 °F 8.2 °F 1023.6 in SW 9.7 mph 11.3 mph 89 % 0.0 in
11:21 10.1 °F 8.2 °F 1023.6 in SW 9.7 mph 11.3 mph 88 % 0.0 in
11:27 10.3 °F 8.4 °F 1023.6 in SW 11.1 mph 11.3 mph 88 % 0.0 in
11:33 10.4 °F 8.5 °F 1023.2 in SSW 11.1 mph 14.5 mph 88 % 0.0 in
11:39 10.6 °F 8.5 °F 1023.2 in SSW 13.0 mph 13.0 mph 87 % 0.0 in
11:45 10.7 °F 8.6 °F 1023.2 in South 6.4 mph 14.5 mph 87 % 0.0 in
11:51 10.8 °F 8.6 °F 1023.2 in SSW 9.7 mph 16.1 mph 86 % 0.0 in
11:57 11.0 °F 8.9 °F 1022.9 in SSW 11.1 mph 17.7 mph 87 % 0.0 in
12:03 11.1 °F 8.7 °F 1022.9 in SSW 14.3 mph 16.1 mph 85 % 0.0 in
12:09 11.2 °F 8.9 °F 1022.9 in SSW 6.4 mph 12.9 mph 86 % 0.0 in
12:15 11.2 °F 8.8 °F 1022.9 in SSW 13.0 mph 16.1 mph 85 % 0.0 in
12:21 11.3 °F 8.7 °F 1022.6 in SW 11.1 mph 16.1 mph 84 % 0.0 in
12:27 11.4 °F 9.0 °F 1022.6 in SSW 13.0 mph 14.5 mph 85 % 0.0 in
12:33 11.6 °F 9.0 °F 1022.6 in SW 9.7 mph 17.7 mph 84 % 0.0 in
12:39 11.7 °F 8.9 °F 1022.2 in SW 9.7 mph 22.5 mph 83 % 0.0 in
12:45 11.8 °F 8.6 °F 1022.2 in SSW 13.0 mph 17.7 mph 81 % 0.0 in
12:51 11.9 °F 9.1 °F 1022.2 in SW 9.7 mph 12.9 mph 83 % 0.0 in
12:57 12.0 °F 9.2 °F 1022.2 in SW 16.3 mph 19.3 mph 83 % 0.0 in
13:03 11.9 °F 8.7 °F 1021.9 in SW 16.3 mph 22.5 mph 81 % 0.0 in
13:09 11.9 °F 9.1 °F 1021.9 in SSW 11.1 mph 17.7 mph 83 % 0.0 in
13:15 12.1 °F 8.8 °F 1021.9 in South 11.1 mph 16.1 mph 80 % 0.0 in
13:21 12.2 °F 8.9 °F 1021.6 in SSW 14.3 mph 19.3 mph 80 % 0.0 in
13:27 12.4 °F 9.0 °F 1021.6 in SW 14.3 mph 16.1 mph 80 % 0.0 in
13:33 12.4 °F 8.7 °F 1021.2 in SW 14.3 mph 17.7 mph 78 % 0.0 in
13:39 12.4 °F 8.7 °F 1021.2 in SW 13.0 mph 17.7 mph 78 % 0.0 in
13:45 12.4 °F 9.0 °F 1021.2 in SSW 13.0 mph 22.5 mph 80 % 0.0 in
13:51 12.4 °F 9.0 °F 1021.2 in SSW 16.3 mph 17.7 mph 80 % 0.0 in
13:57 12.3 °F 8.8 °F 1020.9 in SW 16.3 mph 20.9 mph 79 % 0.0 in
14:03 12.3 °F 8.8 °F 1020.9 in SSW 14.3 mph 25.7 mph 79 % 0.0 in
14:09 12.3 °F 8.8 °F 1020.9 in SW 11.1 mph 19.3 mph 79 % 0.0 in
14:15 12.3 °F 8.8 °F 1020.5 in SW 16.3 mph 16.3 mph 79 % 0.0 in
14:21 12.2 °F 8.5 °F 1020.5 in SW 16.3 mph 20.9 mph 78 % 0.0 in
14:27 12.2 °F 8.7 °F 1020.5 in WSW 14.3 mph 19.3 mph 79 % 0.0 in
14:33 12.4 °F 9.0 °F 1020.2 in SSW 9.7 mph 20.9 mph 80 % 0.0 in
14:39 12.5 °F 9.1 °F 1020.2 in SSW 17.7 mph 25.7 mph 80 % 0.0 in
14:51 12.4 °F 8.7 °F 1019.9 in SW 20.9 mph 25.7 mph 78 % 0.0 in
14:57 12.4 °F 8.7 °F 1019.9 in SSW 17.7 mph 27.4 mph 78 % 0.0 in
15:03 12.3 °F 8.9 °F 1019.9 in SW 20.9 mph 27.4 mph 80 % 0.0 in
15:09 12.3 °F 8.6 °F 1019.5 in WSW 22.7 mph 22.7 mph 78 % 0.0 in
15:15 12.3 °F 8.8 °F 1019.5 in SW 17.7 mph 22.5 mph 79 % 0.0 in
15:27 12.3 °F 9.1 °F 1019.5 in SW 14.3 mph 22.5 mph 81 % 0.0 in
15:33 12.2 °F 8.7 °F 1019.5 in SSW 20.9 mph 25.7 mph 79 % 0.0 in
15:39 12.3 °F 8.8 °F 1019.5 in SW 22.7 mph 24.1 mph 79 % 0.0 in
15:45 12.2 °F 8.9 °F 1019.5 in SW 16.3 mph 25.7 mph 80 % 0.0 in
15:51 12.2 °F 8.9 °F 1019.5 in WSW 14.3 mph 27.4 mph 80 % 0.0 in
15:57 12.2 °F 8.7 °F 1019.5 in SW 13.0 mph 19.3 mph 79 % 0.0 in
16:03 12.1 °F 8.6 °F 1019.2 in SW 11.1 mph 20.9 mph 79 % 0.0 in
16:09 12.1 °F 8.9 °F 1019.5 in SW 16.3 mph 16.3 mph 81 % 0.0 in
16:15 12.0 °F 8.8 °F 1019.5 in SW 14.3 mph 20.9 mph 81 % 0.0 in
16:21 12.0 °F 8.7 °F 1019.5 in SSW 11.1 mph 25.7 mph 80 % 0.0 in
16:27 11.9 °F 8.9 °F 1019.5 in SSW 9.7 mph 19.3 mph 82 % 0.0 in
16:33 11.8 °F 9.2 °F 1019.5 in SSW 11.1 mph 12.9 mph 84 % 0.0 in
16:51 11.6 °F 8.6 °F 1019.5 in SW 16.3 mph 17.7 mph 82 % 0.0 in
16:57 11.6 °F 8.8 °F 1019.2 in SSW 9.7 mph 16.1 mph 83 % 0.0 in
17:03 11.4 °F 8.8 °F 1019.2 in SSW 6.4 mph 11.3 mph 84 % 0.0 in
17:09 11.3 °F 8.7 °F 1019.2 in SW 4.7 mph 11.3 mph 84 % 0.0 in
17:15 11.2 °F 8.8 °F 1019.2 in SSW 6.4 mph 9.7 mph 85 % 0.0 in
17:21 11.0 °F 8.7 °F 1019.2 in SW 6.4 mph 8.0 mph 86 % 0.0 in
17:27 10.8 °F 8.6 °F 1019.2 in SSW 7.9 mph 8.0 mph 86 % 0.0 in
17:33 10.7 °F 8.5 °F 1019.2 in SW 7.9 mph 11.3 mph 86 % 0.0 in
17:39 10.4 °F 8.3 °F 1019.2 in SW 7.9 mph 9.7 mph 87 % 0.0 in
17:45 10.2 °F 8.1 °F 1018.8 in SW 6.4 mph 9.7 mph 87 % 0.0 in
17:51 10.0 °F 8.1 °F 1019.2 in SSW 7.9 mph 9.7 mph 88 % 0.0 in
17:57 9.9 °F 7.8 °F 1018.8 in SW 6.4 mph 9.7 mph 87 % 0.0 in
18:21 9.4 °F 7.7 °F 1018.8 in SW 4.7 mph 8.0 mph 89 % 0.0 in
18:33 9.4 °F 7.5 °F 1018.8 in SW 3.2 mph 6.4 mph 88 % 0.0 in
18:39 9.3 °F 7.4 °F 1018.8 in SW 4.7 mph 6.4 mph 88 % 0.0 in
18:45 9.3 °F 7.4 °F 1018.8 in SW 4.7 mph 8.0 mph 88 % 0.0 in
18:51 9.3 °F 7.4 °F 1018.8 in SW 6.4 mph 8.0 mph 88 % 0.0 in
18:57 9.2 °F 7.5 °F 1018.8 in SW 7.9 mph 8.0 mph 89 % 0.0 in
19:03 9.2 °F 7.5 °F 1018.8 in SSW 6.4 mph 8.0 mph 89 % 0.0 in
19:09 9.1 °F 7.4 °F 1018.8 in SSW 6.4 mph 8.0 mph 89 % 0.0 in
19:27 9.1 °F 7.4 °F 1019.2 in WSW 4.7 mph 6.4 mph 89 % 0.0 in
19:33 9.3 °F 7.6 °F 1019.2 in SW 4.7 mph 8.0 mph 89 % 0.0 in
19:39 9.3 °F 7.4 °F 1019.2 in SW 6.4 mph 8.0 mph 88 % 0.0 in
19:45 9.4 °F 7.5 °F 1019.2 in SW 4.7 mph 8.0 mph 88 % 0.0 in
19:51 9.6 °F 7.7 °F 1019.2 in SW 9.7 mph 12.9 mph 88 % 0.0 in
19:57 9.6 °F 7.7 °F 1019.2 in SW 7.9 mph 11.3 mph 88 % 0.0 in
20:03 9.6 °F 7.7 °F 1019.2 in SSW 7.9 mph 9.7 mph 88 % 0.0 in
20:15 9.2 °F 7.6 °F 1019.2 in SSW 6.4 mph 9.7 mph 90 % 0.0 in
20:21 9.3 °F 7.7 °F 1019.2 in SW 6.4 mph 8.0 mph 90 % 0.0 in
20:27 9.5 °F 7.8 °F 1019.2 in SW 7.9 mph 12.9 mph 89 % 0.0 in
20:33 9.9 °F 8.0 °F 1019.2 in SW 6.4 mph 11.3 mph 88 % 0.0 in
20:39 10.3 °F 8.1 °F 1019.2 in SW 11.1 mph 14.5 mph 86 % 0.0 in
20:45 10.7 °F 8.1 °F 1019.2 in SW 11.1 mph 20.9 mph 84 % 0.0 in
20:51 10.8 °F 8.0 °F 1019.2 in WSW 9.7 mph 14.5 mph 83 % 0.0 in
21:03 10.8 °F 8.0 °F 1019.2 in SSW 3.2 mph 12.9 mph 83 % 0.0 in
21:09 10.8 °F 8.2 °F 1019.2 in SW 13.0 mph 17.7 mph 84 % 0.0 in
21:15 10.8 °F 8.2 °F 1019.2 in SW 16.3 mph 17.7 mph 84 % 0.0 in
21:21 10.7 °F 8.1 °F 1019.2 in SW 7.9 mph 16.1 mph 84 % 0.0 in
21:27 10.7 °F 8.1 °F 1019.2 in SW 11.1 mph 12.9 mph 84 % 0.0 in
21:33 10.6 °F 8.0 °F 1019.2 in SW 14.3 mph 14.5 mph 84 % 0.0 in
21:39 10.2 °F 7.8 °F 1018.8 in South 7.9 mph 11.3 mph 85 % 0.0 in
21:45 9.8 °F 7.7 °F 1019.2 in SW 7.9 mph 11.3 mph 87 % 0.0 in
21:51 9.8 °F 7.9 °F 1019.2 in WSW 4.7 mph 12.9 mph 88 % 0.0 in
21:57 9.8 °F 7.9 °F 1019.2 in SSW 11.1 mph 14.5 mph 88 % 0.0 in
22:03 9.9 °F 8.0 °F 1019.2 in SW 7.9 mph 12.9 mph 88 % 0.0 in
22:09 10.3 °F 8.1 °F 1019.2 in SW 14.3 mph 17.7 mph 86 % 0.0 in
22:15 10.6 °F 8.2 °F 1019.2 in West 13.0 mph 22.5 mph 85 % 0.0 in
22:21 10.6 °F 8.2 °F 1019.2 in WSW 14.3 mph 17.7 mph 85 % 0.0 in
22:27 10.6 °F 8.2 °F 1019.2 in SW 14.3 mph 24.1 mph 85 % 0.0 in
22:34 10.6 °F 8.2 °F 1019.2 in WSW 9.7 mph 17.7 mph 85 % 0.0 in
22:40 10.3 °F 8.1 °F 1019.2 in SW 7.9 mph 11.3 mph 86 % 0.0 in
22:46 10.0 °F 7.9 °F 1019.2 in South 4.7 mph 6.4 mph 87 % 0.0 in
22:52 9.8 °F 7.9 °F 1019.2 in SSW 6.4 mph 11.3 mph 88 % 0.0 in
22:58 9.8 °F 7.9 °F 1018.8 in SSW 4.7 mph 12.9 mph 88 % 0.0 in
23:04 9.8 °F 7.9 °F 1018.8 in SW 7.9 mph 14.5 mph 88 % 0.0 in
23:10 9.9 °F 7.8 °F 1019.2 in SSW 9.7 mph 17.7 mph 87 % 0.0 in
23:18 10.2 °F 8.0 °F 1018.8 in SSW 13.0 mph 17.7 mph 86 % 0.0 in
23:24 10.1 °F 8.0 °F 1018.8 in SW 9.7 mph 16.1 mph 87 % 0.0 in
23:30 10.0 °F 7.9 °F 1019.2 in SW 9.7 mph 11.3 mph 87 % 0.0 in
23:36 9.9 °F 8.0 °F 1018.8 in South 7.9 mph 9.7 mph 88 % 0.0 in
23:44 9.9 °F 8.0 °F 1018.8 in South 3.2 mph 9.7 mph 88 % 0.0 in
23:50 9.8 °F 7.9 °F 1018.8 in SSW 7.9 mph 11.3 mph 88 % 0.0 in
23:56 9.9 °F 8.0 °F 1018.5 in SE 6.4 mph 11.3 mph 88 % 0.0 in
Meteo18
Compliments of Weather Underground - 4 mb

Script developed by  Jim McMurry - jmcmurry@mwt.net Adapted for the template by  Wim van der Kuil - Leuven-Template.eu

You find our weather info also at:

European Weather Network

Weather Underground

Equipment we use:

Weather-station
Davis Vue

Weather-program
Meteobridge

Weather-server
Raspberry PI 2 B+

Provider
1 and 1

Davis Vue

Meteobridge

Raspberry PI 2 B+

1 and 1